Station: Perisher Valley

  Atmospheric Gas Attenuation - ITU Rec 676-11   --------------- db/100km ---------------
Date Time Temp RH % AH g/m3 Dew Point Wind Direction Speed kph Gust kph Barometer mB Rainfall Since 9am 24GHz 47GHz 76GHz 122GHz 134GHz 241GHz
23 08:20 1.2 78 4.11 -2.2 24 35 1013.1 0 10.4 22.0 27.2 70.6 51.5 172.3
23 08:10 1.1 81 4.24 -1.8 32 43 1013.1 0 10.7 22.3 27.7 72.1 53.3 178.5
23 08:00 1 83 4.31 -1.6 35 43 1013.1 0 10.9 22.4 28.0 72.9 54.3 182.0
23 07:50 0.9 83 4.28 -1.7 20 37 1013.1 0 10.8 22.4 28.0 72.7 53.9 180.8
23 07:40 0.8 84 4.31 -1.5 28 39 1013.1 0 10.9 22.5 28.1 73.1 54.4 182.4
23 07:30 0.7 89 4.53 -0.9 30 41 1013.1 0 11.4 22.8 29.0 75.6 57.4 192.9
23 07:20 0.6 92 4.65 -0.6 19 30 1013.1 0 11.6 23.1 29.6 77.0 59.1 198.8
23 07:10 0.6 93 4.7 -0.4 22 35 1013.1 0 11.7 23.1 29.8 77.5 59.8 201.2
23 07:00 0.6 92 4.65 -0.6 17 22 1013.1 0 11.6 23.1 29.6 77.0 59.1 198.8
23 06:50 0.4 94 4.69 -0.5 6 13 1013.1 0 11.7 23.2 29.8 77.6 59.8 201.2
23 06:40 0.4 93 4.64 -0.6 13 24 1013.1 0 11.6 23.1 29.6 77.1 59.1 198.9
23 06:30 0.5 92 4.62 -0.6 13 26 1013.1 0 11.6 23.0 29.5 76.8 58.8 197.7
23 06:20 0.6 91 4.6 -0.7 20 33 1013.1 0 11.5 23.0 29.4 76.4 58.4 196.5
23 06:10 0.7 91 4.63 -0.6 15 24 1013.1 0 11.6 23.0 29.4 76.7 58.7 197.6
23 06:00 0.8 91 4.66 -0.5 15 26 1013.1 0 11.6 23.0 29.5 76.9 59.1 198.8
23 05:50 0.7 92 4.68 -0.5 24 32 1013.1 0 11.7 23.1 29.6 77.2 59.4 200.0
23 05:40 0.7 89 4.53 -0.9 17 26 1013.1 0 11.4 22.8 29.0 75.6 57.4 192.9
23 05:30 0.7 90 4.58 -0.8 19 28 1013.1 0 11.5 22.9 29.2 76.1 58.1 195.3
23 05:20 1 89 4.63 -0.6 13 32 1013.1 0 11.6 22.9 29.3 76.4 58.5 196.9
23 05:10 0.9 90 4.65 -0.6 20 35 1013.1 0 11.6 23.0 29.4 76.7 58.9 198.1
23 05:00 0.8 92 4.72 -0.4 19 37 1013.1 0 11.8 23.1 29.8 77.5 59.9 201.6
23 04:50 0.8 89 4.56 -0.8 15 32 1013.1 0 11.4 22.9 29.1 75.8 57.7 194.1
23 04:40 0.9 88 4.54 -0.9 20 32 1013.1 0 11.4 22.8 29.0 75.5 57.4 192.9
23 04:30 0.8 90 4.61 -0.7 9 19 1013.1 0 11.5 22.9 29.3 76.3 58.4 196.4
23 04:20 0.8 91 4.66 -0.5 19 26 1013.1 0 11.6 23.0 29.5 76.9 59.1 198.8
23 04:10 0.9 94 4.85 0 15 28 1013.1 0 12.0 23.3 30.3 78.9 61.5 207.5
23 04:00 0.8 96 4.92 0.2 13 24 1013.1 0 12.2 23.5 30.6 79.7 62.6 211.1
23 03:50 0.8 92 4.72 -0.4 13 24 1013.1 0 11.8 23.1 29.8 77.5 59.9 201.6
23 03:40 0.8 92 4.72 -0.4 15 28 1013.1 0 11.8 23.1 29.8 77.5 59.9 201.6
23 03:30 0.8 90 4.61 -0.6 15 32 1013.1 0 11.5 22.9 29.3 76.3 58.4 196.4
23 03:20 0.8 93 4.77 -0.2 15 19 1013.1 0 11.9 23.2 30.0 78.1 60.5 204.0
23 03:10 0.6 94 4.75 -0.3 11 24 1013.1 0 11.8 23.2 30.0 78.1 60.4 203.6
23 03:00 0.8 94 4.82 -0.1 9 17 1013.1 0 12.0 23.3 30.2 78.6 61.2 206.4
23 02:50 0.7 93 4.73 -0.3 15 20 1013.1 0 11.8 23.2 29.8 77.8 60.1 202.4
23 02:40 0.7 94 4.79 -0.2 19 26 1013.1 0 11.9 23.3 30.1 78.4 60.9 205.2
23 02:30 0.6 91 4.6 -0.7 17 22 1013.1 0 11.5 23.0 29.4 76.4 58.4 196.5
23 02:20 0.6 91 4.6 -0.7 9 17 1013.1 0 11.5 23.0 29.4 76.4 58.4 196.5
23 02:10 0.7 89 4.53 -0.9 9 22 1013.1 0 11.4 22.8 29.0 75.6 57.4 192.9
23 02:00 0.8 88 4.51 -1 11 20 1013.1 0 11.3 22.8 28.9 75.3 57.1 191.7
23 01:50 0.6 92 4.65 -0.6 11 17 1013.1 0 11.6 23.1 29.6 77.0 59.1 198.8
23 01:40 0.7 91 4.63 -0.6 15 20 1013.1 0 11.6 23.0 29.4 76.7 58.7 197.6
23 01:30 0.6 89 4.5 -1 11 26 1013.1 0 11.3 22.8 28.9 75.4 57.1 191.8
23 01:20 0.9 90 4.65 -0.6 11 22 1013.1 0 11.6 23.0 29.4 76.7 58.9 198.1
23 01:10 0.8 91 4.66 -0.5 17 20 1013.1 0 11.6 23.0 29.5 76.9 59.1 198.8
23 01:00 0.8 84 4.31 -1.6 17 24 1013.1 0 10.9 22.5 28.1 73.1 54.4 182.4
23 00:50 1 81 4.21 -1.8 7 11 1013.1 0 10.7 22.3 27.6 71.9 53.0 177.4
23 00:40 1.4 81 4.33 -1.5 20 32 1013.1 0 10.9 22.3 28.0 72.8 54.3 182.0
23 00:30 1.4 81 4.33 -1.5 17 28 1013.1 0 10.9 22.3 28.0 72.8 54.3 182.0
23 00:20 1.4 82 4.38 -1.4 11 22 1013.1 0 11.0 22.4 28.2 73.3 54.9 184.3
23 00:10 1.5 81 4.36 -1.4 17 24 1013.1 0 11.0 22.4 28.1 73.0 54.6 183.1
23 00:00 1.3 81 4.3 -1.5 20 28 1013.1 0 10.8 22.3 27.9 72.6 53.9 180.8
22 23:50 1.3 83 4.4 -1.3 22 28 1013.1 0 11.1 22.5 28.3 73.6 55.2 185.4
22 23:40 1.3 83 4.4 -1.3 19 26 1013.1 0 11.1 22.5 28.3 73.6 55.2 185.4
22 23:30 1.1 85 4.45 -1.2 20 30 1013.1 0 11.2 22.6 28.6 74.3 56.0 188.2
22 23:20 1.1 86 4.5 -1 24 32 1013.1 0 11.3 22.7 28.8 74.9 56.7 190.6
22 23:10 1.2 88 4.64 -0.6 20 33 1013.1 0 11.6 22.9 29.3 76.3 58.5 196.8
22 23:00 1 89 4.63 -0.6 28 46 1013.1 0 11.6 22.9 29.3 76.4 58.5 196.9
22 22:50 0.5 91 4.57 -0.8 20 33 1013.1 0 11.5 23.0 29.3 76.2 58.1 195.3
22 22:40 0.4 90 4.49 -1.1 24 37 1013.1 0 11.3 22.9 29.0 75.4 57.1 191.8
22 22:30 0.3 88 4.36 -1.5 15 22 1013.1 0 11.0 22.7 28.5 74.1 55.4 185.9
22 22:20 0.5 92 4.62 -0.7 19 28 1013.1 0 11.6 23.0 29.5 76.8 58.8 197.7
22 22:10 0.3 92 4.56 -0.9 13 22 1013.1 0 11.4 23.0 29.3 76.3 58.1 195.3
22 22:00 0.3 90 4.46 -1.2 17 22 1013.1 0 11.2 22.8 28.9 75.2 56.8 190.6
22 21:50 0.2 90 4.43 -1.3 17 33 1013.1 0 11.2 22.8 28.8 75.0 56.4 189.4
22 21:40 0.3 89 4.41 -1.3 9 20 1013.1 0 11.1 22.8 28.7 74.7 56.1 188.3
22 21:30 0.3 88 4.36 -1.5 19 24 1013.1 0 11.0 22.7 28.5 74.1 55.4 185.9
22 21:20 0.3 89 4.41 -1.3 22 30 1013.1 0 11.1 22.8 28.7 74.7 56.1 188.3
22 21:10 0.4 86 4.29 -1.7 19 28 1013.1 0 10.8 22.5 28.2 73.3 54.4 182.4
22 21:00 0.6 86 4.35 -1.5 17 28 1013.1 0 11.0 22.6 28.3 73.7 55.1 184.8
22 20:50 0.8 81 4.15 -2 17 28 1013.1 0 10.5 22.2 27.5 71.4 52.3 175.0
22 20:40 0.9 80 4.13 -2.2 13 24 1013.1 0 10.5 22.2 27.4 71.1 52.0 173.9
22 20:30 1.1 78 4.08 -2.3 19 30 1013.1 0 10.4 22.0 27.1 70.4 51.2 171.2
22 20:20 0.8 81 4.15 -2 20 30 1013.1 0 10.5 22.2 27.5 71.4 52.3 175.0
22 20:10 0.6 86 4.35 -1.5 28 35 1013.1 0 11.0 22.6 28.3 73.7 55.1 184.8
22 20:00 0.6 89 4.5 -1 15 22 1013.1 0 11.3 22.8 28.9 75.4 57.1 191.8
22 19:50 0.6 90 4.55 -0.9 22 33 1013.1 0 11.4 22.9 29.2 75.9 57.7 194.1
22 19:40 0.8 86 4.41 -1.3 24 39 1013.1 0 11.1 22.6 28.5 74.2 55.7 187.1
22 19:30 0.7 94 4.79 -0.2 24 37 1013.1 0 11.9 23.3 30.1 78.4 60.9 205.2
22 19:20 0.8 92 4.72 -0.4 26 37 1013.1 0 11.8 23.1 29.8 77.5 59.9 201.6
22 19:10 0.9 93 4.8 -0.1 32 44 1013.1 0 11.9 23.2 30.1 78.3 60.9 205.2
22 19:00 0.9 94 4.85 0 17 24 1013.1 0 12.0 23.3 30.3 78.9 61.5 207.5
22 18:50 0.9 99 5.11 0.7 19 32 1013.1 0 12.6 23.7 31.3 81.7 65.1 219.9
22 18:40 1 98 5.09 0.7 24 33 1013.1 0 12.6 23.7 31.2 81.4 64.7 218.7
22 18:30 1 98 5.09 0.7 20 33 1013.1 0 12.6 23.7 31.2 81.4 64.7 218.7
22 18:20 0.9 100 5.16 0.9 20 30 1013.1 0 12.7 23.8 31.5 82.3 65.8 222.3
22 18:10 1 100 5.2 1 17 35 1013.1 0 12.8 23.9 31.7 82.6 66.2 224.0
22 18:00 1 100 5.2 1 28 35 1013.1 0 12.8 23.9 31.7 82.6 66.2 224.0
22 17:50 1.1 100 5.23 1.1 28 37 1013.1 0 12.9 23.9 31.7 82.8 66.6 225.1
22 17:40 1 100 5.2 1 26 35 1013.1 0 12.8 23.9 31.7 82.6 66.2 224.0
22 17:30 1 100 5.2 1 22 35 1013.1 0 12.8 23.9 31.7 82.6 66.2 224.0
22 17:20 1 100 5.2 1 15 22 1013.1 0 12.8 23.9 31.7 82.6 66.2 224.0
22 17:10 1.2 98 5.16 0.9 20 26 1013.1 0 12.7 23.7 31.4 82.0 65.5 221.5
22 17:00 1.3 95 5.04 0.6 17 37 1013.1 0 12.4 23.5 30.9 80.5 63.8 215.5
22 16:50 1.3 98 5.2 1 13 24 1013.1 0 12.8 23.8 31.5 82.3 66.0 223.1
22 16:40 1.3 98 5.2 1 20 30 1013.1 0 12.8 23.8 31.5 82.3 66.0 223.1
22 16:30 1.4 96 5.13 0.8 24 35 1013.1 0 12.6 23.6 31.2 81.4 64.9 219.5
22 16:20 1.4 94 5.02 0.6 9 24 1013.1 0 12.4 23.5 30.8 80.2 63.4 214.2
22 16:10 1.5 92 4.95 0.3 24 32 1013.1 0 12.2 23.3 30.4 79.3 62.4 210.7
22 16:00 1.6 91 4.93 0.3 19 24 1013.1 0 12.2 23.3 30.3 79.0 62.1 209.4
22 15:50 1.5 94 5.05 0.6 17 22 1013.1 0 12.5 23.5 30.8 80.4 63.8 215.4

Last Refresh: 23-Jul-2024 08:00:03

Bureau of Meteorology